Santa Venetia, California
Current Conditions -  °F | °C
As of 4:35 AM on Monday 24 Nov 2014 (Local Time) from KDVO Reporting Station
NA  
Wind Chill: 39°   Ceiling: NA
Heat Index: 39°   Visibility: NA
Dew Point: 39°   Wind: 0mph
Humidity: 100%   Direction: NA
Pressure: 30.36"   Gusts: NA
Location:  38.0232°N, 122.547°W
Report Text: KDVO 241235Z AUTO 00000KT 04/04 A3036 RMK AO2
Loading
Personal Weather Stations






























Interactive Weather Map New forecast layout! Learn more

10-Day Weather Forecast

Advertisements
Track Severe Weather on mobile